sim
Sign-in with your pilot id or email,
or register
Callsign
Passwort

Schedule Details

Flight Number: RYR8182 (2)
Departure: London Stansted Airport (EGSS) at 14:10
Arrival: Fuerteventura Airport (GCFV) at 18:20
Route: Ryanair Passenger Schedule. Enter filed route here before submitting Pirep.

Weather Information
Getting current METAR information for EGSS 231120Z AUTO 14009KT 110V180 9999 NCD 29/16 Q1019
Getting current METAR information for GCFV 231130Z 06014KT 9999 FEW020 24/18 Q1017

Schedule Frequency

Route Map